createdAt,value
2022-12-13T00:02:19.450Z,29.60
2022-12-13T00:07:20.804Z,31.73
2022-12-13T00:12:22.089Z,29.15
2022-12-13T00:17:23.604Z,28.25
2022-12-13T00:22:25.123Z,29.20
2022-12-13T00:27:26.447Z,28.80
2022-12-13T00:32:27.719Z,30.85
2022-12-13T00:37:28.953Z,31.58
2022-12-13T00:42:30.302Z,32.80
2022-12-13T00:47:31.832Z,29.95
2022-12-13T00:52:35.917Z,28.93
2022-12-13T00:57:37.261Z,30.63
2022-12-13T01:02:38.523Z,31.05
2022-12-13T01:07:39.900Z,26.40
2022-12-13T01:12:41.178Z,27.50
2022-12-13T01:17:42.494Z,32.17
2022-12-13T01:22:43.781Z,30.13
2022-12-13T01:27:45.035Z,29.77
2022-12-13T01:32:46.396Z,28.95
2022-12-13T01:37:47.754Z,30.20
2022-12-13T01:42:49.022Z,30.30
2022-12-13T01:47:58.403Z,28.65
2022-12-13T01:53:00.216Z,28.55
2022-12-13T01:58:02.130Z,32.47
2022-12-13T02:03:03.860Z,29.60
2022-12-13T02:08:05.819Z,32.37
2022-12-13T02:13:07.319Z,28.27
2022-12-13T02:18:20.029Z,27.02
2022-12-13T02:23:30.394Z,28.85
2022-12-13T02:28:51.954Z,31.10
2022-12-13T02:33:56.618Z,29.67
2022-12-13T02:38:57.893Z,28.27
2022-12-13T02:44:02.069Z,26.92
2022-12-13T02:49:03.554Z,28.92
2022-12-13T02:54:04.938Z,31.98
2022-12-13T02:59:11.168Z,28.73
2022-12-13T03:04:32.645Z,33.22
2022-12-13T03:09:46.776Z,29.52
2022-12-13T03:15:00.291Z,33.17
2022-12-13T03:20:03.707Z,29.80
2022-12-13T03:25:14.594Z,31.07
2022-12-13T03:30:33.338Z,26.85
2022-12-13T03:35:45.235Z,30.13
2022-12-13T03:40:47.100Z,33.17
2022-12-13T03:45:48.402Z,28.80
2022-12-13T03:50:50.552Z,33.70
2022-12-13T03:55:51.976Z,30.27
2022-12-13T04:00:53.218Z,31.92
2022-12-13T04:05:54.467Z,33.80
2022-12-13T04:10:55.734Z,28.63
2022-12-13T04:15:57.029Z,34.60
2022-12-13T04:20:58.424Z,33.65
2022-12-13T04:26:00.097Z,31.67
2022-12-13T04:31:01.398Z,28.75
2022-12-13T04:36:03.036Z,30.25
2022-12-13T04:41:08.183Z,28.53
2022-12-13T04:46:09.487Z,31.08
2022-12-13T04:51:10.765Z,31.88
2022-12-13T04:56:11.991Z,30.35
2022-12-13T05:01:13.431Z,30.88
2022-12-13T05:06:27.296Z,32.63
2022-12-13T05:11:35.494Z,31.17
2022-12-13T05:16:37.087Z,29.05
2022-12-13T05:21:38.358Z,31.65
2022-12-13T05:26:39.614Z,27.75
2022-12-13T05:31:40.879Z,33.03
2022-12-13T05:36:42.136Z,27.98
2022-12-13T05:41:43.422Z,28.52
2022-12-13T05:46:44.646Z,36.20
2022-12-13T05:51:45.923Z,45.15
2022-12-13T05:56:47.193Z,48.50
2022-12-13T06:01:48.769Z,65.57
2022-12-13T06:06:51.041Z,50.35
2022-12-13T06:12:00.920Z,46.67
2022-12-13T06:17:03.110Z,39.83
2022-12-13T06:22:04.421Z,31.17
2022-12-13T06:27:05.739Z,35.67
2022-12-13T06:32:07.081Z,34.03
2022-12-13T06:37:10.647Z,33.40
2022-12-13T06:42:22.377Z,26.98
2022-12-13T06:47:30.854Z,30.07
2022-12-13T06:52:33.910Z,28.85
2022-12-13T06:57:35.223Z,36.47
2022-12-13T07:02:38.085Z,34.05
2022-12-13T07:07:39.741Z,39.85
2022-12-13T07:12:41.033Z,40.60
2022-12-13T07:17:42.567Z,38.90
2022-12-13T07:22:48.469Z,36.65
2022-12-13T07:27:55.864Z,38.10
2022-12-13T07:33:04.881Z,31.70
2022-12-13T07:38:07.031Z,36.03
2022-12-13T07:43:09.603Z,30.58
2022-12-13T07:48:10.844Z,39.10
2022-12-13T07:53:12.095Z,39.22
2022-12-13T07:58:14.422Z,51.33
2022-12-13T08:03:25.558Z,34.00
2022-12-13T08:08:30.828Z,48.83
2022-12-13T08:13:33.227Z,42.15
2022-12-13T08:18:34.616Z,54.25
2022-12-13T08:23:36.550Z,53.80
2022-12-13T08:28:38.036Z,67.63
2022-12-13T08:33:40.627Z,36.58
2022-12-13T08:38:42.643Z,42.95
2022-12-13T08:43:43.940Z,50.17
2022-12-13T08:48:45.246Z,53.28
2022-12-13T08:53:46.809Z,39.43
2022-12-13T08:58:51.547Z,35.00
2022-12-13T09:03:52.805Z,40.47
2022-12-13T09:08:54.578Z,31.80
2022-12-13T09:14:01.608Z,30.05
2022-12-13T09:19:24.769Z,32.90
2022-12-13T09:24:26.155Z,40.17
2022-12-13T09:29:27.374Z,31.65
2022-12-13T09:34:28.745Z,27.98
2022-12-13T09:39:29.993Z,26.92
2022-12-13T09:44:45.201Z,30.40
2022-12-13T09:49:52.264Z,32.55
2022-12-13T09:54:56.771Z,25.08
2022-12-13T10:00:01.007Z,29.42
2022-12-13T10:05:22.873Z,24.90
2022-12-13T10:10:26.607Z,26.07
2022-12-13T10:15:28.222Z,25.77
2022-12-13T10:20:29.793Z,27.80
2022-12-13T10:25:51.092Z,24.67
2022-12-13T10:30:52.883Z,26.67
2022-12-13T10:36:13.032Z,24.97
2022-12-13T10:41:33.177Z,24.27
2022-12-13T10:46:38.591Z,26.80
2022-12-13T10:51:40.349Z,28.40
2022-12-13T10:56:45.462Z,25.95
2022-12-13T11:01:47.046Z,24.07
2022-12-13T11:06:48.360Z,26.60
2022-12-13T11:11:50.612Z,29.90
2022-12-13T11:17:08.404Z,27.45
2022-12-13T11:22:10.094Z,26.92
2022-12-13T11:27:31.609Z,27.03
2022-12-13T11:32:42.302Z,30.20
2022-12-13T11:38:05.621Z,28.05
2022-12-13T11:43:26.009Z,24.30
2022-12-13T11:48:37.158Z,29.70
2022-12-13T11:53:38.513Z,30.37
2022-12-13T11:59:02.547Z,27.38
2022-12-13T12:04:07.272Z,25.55
2022-12-13T12:09:13.690Z,23.42
2022-12-13T12:14:22.169Z,26.23
2022-12-13T12:19:24.952Z,27.97
2022-12-13T12:24:32.495Z,25.00
2022-12-13T12:29:45.987Z,26.52
2022-12-13T12:35:04.589Z,22.73
2022-12-13T12:40:24.731Z,21.95
2022-12-13T12:50:55.890Z,21.35
2022-12-13T12:55:57.245Z,20.63
2022-12-13T13:01:17.316Z,20.40
2022-12-13T13:06:20.799Z,19.67
2022-12-13T13:11:24.860Z,23.40
2022-12-13T13:16:26.859Z,47.38
2022-12-13T13:21:30.907Z,48.17
2022-12-13T13:26:36.647Z,21.67
2022-12-13T13:32:01.560Z,23.67
2022-12-13T13:37:04.629Z,26.43
2022-12-13T13:42:16.827Z,25.30
2022-12-13T13:47:20.931Z,24.27
2022-12-13T13:52:25.714Z,24.73
2022-12-13T13:58:08.725Z,21.40
2022-12-13T14:03:33.344Z,22.07
2022-12-13T14:08:45.166Z,21.40
2022-12-13T14:13:58.483Z,18.55
2022-12-13T14:19:18.779Z,54.38
2022-12-13T14:24:26.121Z,28.13
2022-12-13T14:29:37.303Z,30.57
2022-12-13T14:34:39.319Z,28.02
2022-12-13T14:39:43.835Z,31.35
2022-12-13T14:44:47.963Z,25.52
2022-12-13T14:49:53.073Z,33.17
2022-12-13T14:54:57.867Z,33.10
2022-12-13T15:00:01.246Z,25.52
2022-12-13T15:05:05.264Z,30.38
2022-12-13T15:10:27.955Z,27.08
2022-12-13T15:15:36.666Z,29.88
2022-12-13T15:20:38.764Z,31.60
2022-12-13T15:25:40.217Z,29.90
2022-12-13T15:30:41.624Z,26.35
2022-12-13T15:35:43.300Z,41.85
2022-12-13T15:40:49.966Z,29.13
2022-12-13T15:45:51.647Z,27.47
2022-12-13T15:51:13.223Z,26.85
2022-12-13T15:56:30.274Z,30.27
2022-12-13T16:01:35.931Z,25.77
2022-12-13T16:06:37.218Z,28.65
2022-12-13T16:11:40.503Z,31.90
2022-12-13T16:16:41.753Z,25.35
2022-12-13T16:21:43.004Z,30.38
2022-12-13T16:26:45.199Z,31.17
2022-12-13T16:31:46.621Z,25.05
2022-12-13T16:36:47.983Z,28.40
2022-12-13T16:41:49.323Z,31.08
2022-12-13T16:47:12.939Z,23.15
2022-12-13T16:52:11.862Z,23.90
2022-12-13T16:57:13.344Z,31.10
2022-12-13T17:02:16.779Z,24.57
2022-12-13T17:07:18.289Z,29.42
2022-12-13T17:12:19.514Z,22.90
2022-12-13T17:17:25.580Z,29.55
2022-12-13T17:22:26.896Z,28.80
2022-12-13T17:27:28.413Z,34.83
2022-12-13T17:32:29.708Z,29.88
2022-12-13T17:37:32.043Z,27.92
2022-12-13T17:42:34.140Z,35.35
2022-12-13T17:47:35.526Z,27.48
2022-12-13T17:52:38.118Z,26.33
2022-12-13T17:57:39.440Z,24.90
2022-12-13T18:02:40.827Z,25.83
2022-12-13T18:07:42.099Z,30.65
2022-12-13T18:12:51.857Z,23.15
2022-12-13T18:18:11.335Z,24.17
2022-12-13T18:23:13.676Z,30.67
2022-12-13T18:28:14.908Z,21.05
2022-12-13T18:33:16.195Z,23.02
2022-12-13T18:38:17.435Z,21.85
2022-12-13T18:43:18.779Z,25.07
2022-12-13T18:48:20.300Z,24.13
2022-12-13T18:53:21.590Z,26.40
2022-12-13T18:58:22.862Z,20.35
2022-12-13T19:03:25.543Z,23.77
2022-12-13T19:08:28.330Z,20.47
2022-12-13T19:13:31.102Z,21.92
2022-12-13T19:18:32.855Z,19.38
2022-12-13T19:23:34.611Z,25.63
2022-12-13T19:28:36.144Z,22.30
2022-12-13T19:33:37.523Z,22.93
2022-12-13T19:38:42.110Z,25.38
2022-12-13T19:43:50.639Z,17.48
2022-12-13T19:48:58.440Z,20.42
2022-12-13T19:53:59.763Z,22.48
2022-12-13T19:59:01.238Z,24.20
2022-12-13T20:04:02.582Z,25.15
2022-12-13T20:09:03.846Z,23.38
2022-12-13T20:14:05.119Z,21.88
2022-12-13T20:19:06.462Z,23.65
2022-12-13T20:24:07.794Z,19.30
2022-12-13T20:29:09.053Z,22.35
2022-12-13T20:34:14.135Z,23.42
2022-12-13T20:39:15.515Z,21.60
2022-12-13T20:44:16.821Z,19.98
2022-12-13T20:49:18.143Z,24.37
2022-12-13T20:54:19.450Z,25.30
2022-12-13T20:59:20.734Z,23.05
2022-12-13T21:04:21.998Z,18.33
2022-12-13T21:09:23.226Z,21.90
2022-12-13T21:14:25.576Z,27.30
2022-12-13T21:19:28.385Z,21.40
2022-12-13T21:24:30.038Z,19.75
2022-12-13T21:29:31.323Z,19.95
2022-12-13T21:34:32.919Z,17.60
2022-12-13T21:39:34.230Z,21.23
2022-12-13T21:44:35.491Z,24.98
2022-12-13T21:49:36.759Z,22.95
2022-12-13T21:54:38.026Z,23.98
2022-12-13T21:59:39.269Z,22.95
2022-12-13T22:04:43.608Z,19.83
2022-12-13T22:09:45.563Z,20.10
2022-12-13T22:14:47.003Z,23.20
2022-12-13T22:19:48.644Z,21.80
2022-12-13T22:24:53.827Z,22.17
2022-12-13T22:29:57.198Z,21.80
2022-12-13T22:34:58.955Z,23.38
2022-12-13T22:40:00.352Z,19.45
2022-12-13T22:45:01.583Z,21.38
2022-12-13T22:50:02.835Z,24.02
2022-12-13T22:55:04.248Z,23.43
2022-12-13T23:00:06.061Z,21.65
2022-12-13T23:05:07.487Z,20.50
2022-12-13T23:10:28.887Z,18.05
2022-12-13T23:15:30.963Z,20.85
2022-12-13T23:20:33.545Z,21.43
2022-12-13T23:25:34.817Z,22.50
2022-12-13T23:30:36.236Z,20.30
2022-12-13T23:35:37.534Z,24.30
2022-12-13T23:40:38.741Z,24.10
2022-12-13T23:45:40.066Z,23.33
2022-12-13T23:50:41.572Z,22.13
2022-12-13T23:55:42.869Z,24.77
